Time;durP1;ratioP1;P1;durP2;ratioP2;P2;SDS_P1;SDS_P2;PMS_P1;PMS_P2;Temp;Humidity;BMP_temperature;BMP_pressure;BME280_temperature;BME280_humidity;BME280_pressure;Samples;Min_cycle;Max_cycle;Signal;HPM_P1;HPM_P2
2023/01/08 00:07:25;;;;;;;21.90;7.57;;;;;;;;;;4901953;29;20064;-88
2023/01/08 00:09:53;;;;;;;14.35;5.93;;;;;;;;;;4900701;29;20096;-89
2023/01/08 00:12:19;;;;;;;10.77;4.82;;;;;;;;;;4901808;29;20072;-90
2023/01/08 00:14:44;;;;;;;19.15;6.50;;;;;;;;;;4886152;29;20039;-89
2023/01/08 00:17:10;;;;;;;15.73;6.78;;;;;;;;;;4902245;29;20440;-89
2023/01/08 00:19:35;;;;;;;12.90;6.07;;;;;;;;;;4904655;29;20385;-89
2023/01/08 00:22:01;;;;;;;16.45;7.55;;;;;;;;;;4901755;29;20072;-89
2023/01/08 00:24:26;;;;;;;17.58;7.30;;;;;;;;;;4906278;29;20476;-89
2023/01/08 00:26:52;;;;;;;19.00;7.45;;;;;;;;;;4901520;29;20857;-92
2023/01/08 00:29:17;;;;;;;20.73;6.68;;;;;;;;;;4899941;29;20029;-89
2023/01/08 00:31:44;;;;;;;17.02;7.43;;;;;;;;;;4909208;29;20043;-89
2023/01/08 00:34:09;;;;;;;15.00;6.90;;;;;;;;;;4897753;29;20128;-89
2023/01/08 00:36:35;;;;;;;14.82;6.13;;;;;;;;;;4900757;29;20067;-89
2023/01/08 00:39:00;;;;;;;13.95;6.22;;;;;;;;;;4899719;29;20136;-89
2023/01/08 00:41:25;;;;;;;15.45;6.95;;;;;;;;;;4900460;29;20457;-89
2023/01/08 00:43:51;;;;;;;14.52;6.72;;;;;;;;;;4899285;29;20036;-90
2023/01/08 00:46:16;;;;;;;16.70;6.60;;;;;;;;;;4900411;29;20059;-90
2023/01/08 00:48:42;;;;;;;13.98;6.55;;;;;;;;;;4900215;29;20055;-90
2023/01/08 00:51:07;;;;;;;16.05;7.50;;;;;;;;;;4899427;29;20124;-90
2023/01/08 00:56:17;;;;;;;16.85;5.63;;;;;;;;;;4900581;29;20051;-90
2023/01/08 00:58:42;;;;;;;14.20;5.28;;;;;;;;;;4900004;29;20028;-90
2023/01/08 01:01:12;;;;;;;15.20;5.88;;;;;;;;;;4900649;29;20464;-90
2023/01/08 01:03:37;;;;;;;10.15;4.97;;;;;;;;;;4900795;29;20091;-90
2023/01/08 01:06:03;;;;;;;16.92;7.38;;;;;;;;;;4900786;29;20092;-90
2023/01/08 01:08:28;;;;;;;10.60;5.50;;;;;;;;;;4899622;29;20039;-90
2023/01/08 01:10:54;;;;;;;16.38;5.95;;;;;;;;;;4883420;29;20044;-90
2023/01/08 01:16:04;;;;;;;8.63;3.78;;;;;;;;;;4907741;29;20064;-90
2023/01/08 01:18:29;;;;;;;11.07;5.38;;;;;;;;;;4900599;29;20076;-90
2023/01/08 01:20:54;;;;;;;10.80;4.93;;;;;;;;;;4902014;29;20049;-90
2023/01/08 01:23:20;;;;;;;12.40;5.82;;;;;;;;;;4884814;29;20041;-90
2023/01/08 01:25:45;;;;;;;13.68;6.43;;;;;;;;;;4901388;29;20068;-90
2023/01/08 01:28:11;;;;;;;11.90;5.40;;;;;;;;;;4900698;29;20025;-90
2023/01/08 01:30:36;;;;;;;15.82;6.80;;;;;;;;;;4886957;29;20036;-90
2023/01/08 01:33:02;;;;;;;14.32;6.45;;;;;;;;;;4924545;29;20064;-91
2023/01/08 01:35:27;;;;;;;12.68;5.82;;;;;;;;;;4900269;29;20043;-90
2023/01/08 01:37:53;;;;;;;16.45;6.95;;;;;;;;;;4899966;29;20024;-89
2023/01/08 01:40:18;;;;;;;15.40;6.80;;;;;;;;;;4900689;29;20063;-90
2023/01/08 01:42:44;;;;;;;14.63;6.30;;;;;;;;;;4899679;29;20071;-88
2023/01/08 01:45:09;;;;;;;15.70;7.55;;;;;;;;;;4883736;29;20104;-89
2023/01/08 01:47:38;;;;;;;18.02;6.30;;;;;;;;;;4900673;29;20024;-89
2023/01/08 01:50:07;;;;;;;14.95;5.95;;;;;;;;;;4900193;29;20067;-89
2023/01/08 01:52:33;;;;;;;15.45;6.50;;;;;;;;;;4899876;29;20021;-89
2023/01/08 01:54:59;;;;;;;15.68;6.97;;;;;;;;;;4884125;29;20128;-89
2023/01/08 01:57:25;;;;;;;15.07;6.90;;;;;;;;;;4884543;29;20036;-88
2023/01/08 01:59:50;;;;;;;14.05;6.32;;;;;;;;;;4899062;29;20040;-89
2023/01/08 02:02:16;;;;;;;16.60;6.85;;;;;;;;;;4883422;29;20028;-88
2023/01/08 02:04:41;;;;;;;18.65;7.80;;;;;;;;;;4898639;29;20377;-89
2023/01/08 02:07:07;;;;;;;18.30;8.45;;;;;;;;;;4899077;29;20088;-89
2023/01/08 02:12:29;;;;;;;14.50;6.13;;;;;;;;;;4899819;29;20040;-89
2023/01/08 02:14:58;;;;;;;15.88;7.15;;;;;;;;;;4882864;29;20043;-88
2023/01/08 02:17:34;;;;;;;18.45;8.05;;;;;;;;;;4899063;29;20168;-89
2023/01/08 02:22:59;;;;;;;21.48;6.93;;;;;;;;;;4903580;29;20032;-89
2023/01/08 02:25:30;;;;;;;14.20;6.82;;;;;;;;;;4904383;29;20036;-89
2023/01/08 02:27:56;;;;;;;17.75;7.10;;;;;;;;;;4888599;29;20048;-89
2023/01/08 02:30:21;;;;;;;14.75;6.22;;;;;;;;;;4888757;29;20032;-89
2023/01/08 02:32:47;;;;;;;12.48;6.03;;;;;;;;;;4906683;29;20043;-87
2023/01/08 02:35:12;;;;;;;12.07;5.45;;;;;;;;;;4903628;29;20041;-90
2023/01/08 02:37:37;;;;;;;11.48;6.18;;;;;;;;;;4910611;29;20036;-89
2023/01/08 02:42:59;;;;;;;12.65;5.63;;;;;;;;;;4902624;29;20053;-90
2023/01/08 02:45:27;;;;;;;13.63;6.82;;;;;;;;;;4902965;29;20037;-89
2023/01/08 02:48:01;;;;;;;11.80;6.00;;;;;;;;;;4880688;29;20020;-89
2023/01/08 02:50:40;;;;;;;16.75;7.05;;;;;;;;;;4905456;29;20516;-87
2023/01/08 02:53:12;;;;;;;16.65;6.55;;;;;;;;;;4902137;29;20460;-89
2023/01/08 02:55:38;;;;;;;14.32;6.63;;;;;;;;;;4902620;29;20096;-89
2023/01/08 02:58:03;;;;;;;14.15;6.55;;;;;;;;;;4902957;29;20484;-89
2023/01/08 03:03:13;;;;;;;16.83;7.00;;;;;;;;;;4904090;29;20488;-89
2023/01/08 03:05:39;;;;;;;17.13;7.13;;;;;;;;;;4910710;29;20032;-89
2023/01/08 03:08:04;;;;;;;18.40;7.72;;;;;;;;;;4901844;29;20039;-88
2023/01/08 03:10:29;;;;;;;17.52;7.20;;;;;;;;;;4886654;29;20568;-89
2023/01/08 03:12:57;;;;;;;19.13;7.00;;;;;;;;;;4887050;29;20131;-89
2023/01/08 03:15:29;;;;;;;16.75;7.03;;;;;;;;;;4901581;29;20476;-90
2023/01/08 03:17:55;;;;;;;17.42;7.30;;;;;;;;;;4903678;29;20048;-89
2023/01/08 03:20:21;;;;;;;15.25;6.85;;;;;;;;;;4902704;29;20061;-88
2023/01/08 03:22:48;;;;;;;19.83;7.80;;;;;;;;;;4901648;29;20039;-89
2023/01/08 03:25:14;;;;;;;19.60;8.45;;;;;;;;;;4902071;29;20119;-89
2023/01/08 03:27:41;;;;;;;20.92;7.82;;;;;;;;;;4901805;29;20059;-89
2023/01/08 03:30:06;;;;;;;19.98;9.73;;;;;;;;;;4901547;29;20104;-88
2023/01/08 03:32:32;;;;;;;19.92;9.02;;;;;;;;;;4900755;29;20037;-88
2023/01/08 03:34:57;;;;;;;19.75;8.43;;;;;;;;;;4905760;29;20036;-89
2023/01/08 03:37:25;;;;;;;21.83;8.65;;;;;;;;;;4901319;29;20039;-89
2023/01/08 03:42:41;;;;;;;19.45;7.90;;;;;;;;;;4908218;29;20104;-89
2023/01/08 03:45:06;;;;;;;17.40;8.20;;;;;;;;;;4886715;29;20033;-90
2023/01/08 03:47:32;;;;;;;19.85;7.97;;;;;;;;;;4890450;29;20040;-90
2023/01/08 03:49:59;;;;;;;14.82;7.47;;;;;;;;;;4897427;29;20070;-90
2023/01/08 03:52:26;;;;;;;24.40;10.40;;;;;;;;;;4885706;29;20084;-90
2023/01/08 03:54:51;;;;;;;20.45;8.00;;;;;;;;;;4902264;29;20041;-89
2023/01/08 03:57:17;;;;;;;19.48;7.55;;;;;;;;;;4908977;29;20039;-91
2023/01/08 03:59:42;;;;;;;21.15;8.02;;;;;;;;;;4917453;29;20024;-89
2023/01/08 04:04:52;;;;;;;12.27;6.55;;;;;;;;;;4902149;29;20115;-90
2023/01/08 04:07:17;;;;;;;21.60;8.88;;;;;;;;;;4902970;29;20058;-90
2023/01/08 04:09:43;;;;;;;18.42;7.22;;;;;;;;;;4901388;29;20408;-89
2023/01/08 04:12:08;;;;;;;22.35;7.32;;;;;;;;;;4900189;29;20028;-89
2023/01/08 04:14:34;;;;;;;15.18;6.70;;;;;;;;;;4903208;29;20407;-90
2023/01/08 04:16:59;;;;;;;18.42;6.57;;;;;;;;;;4902146;29;20084;-90
2023/01/08 04:19:24;;;;;;;21.38;7.20;;;;;;;;;;4902097;29;20048;-90
2023/01/08 04:21:50;;;;;;;14.63;7.78;;;;;;;;;;4916514;29;20055;-91
2023/01/08 04:24:16;;;;;;;16.00;7.05;;;;;;;;;;4911476;29;20043;-89
2023/01/08 04:26:41;;;;;;;19.67;7.13;;;;;;;;;;4903095;29;20859;-89
2023/01/08 04:29:06;;;;;;;19.88;6.82;;;;;;;;;;4903305;29;20084;-90
2023/01/08 04:34:16;;;;;;;17.85;7.57;;;;;;;;;;4892708;29;20041;-90
2023/01/08 04:36:42;;;;;;;18.58;8.32;;;;;;;;;;4901856;29;20040;-89
2023/01/08 04:39:07;;;;;;;20.67;8.32;;;;;;;;;;4901185;29;20040;-90
2023/01/08 04:44:17;;;;;;;21.60;9.10;;;;;;;;;;4901070;29;20463;-90
2023/01/08 04:46:42;;;;;;;21.35;9.32;;;;;;;;;;4901276;29;20028;-90
2023/01/08 04:49:08;;;;;;;26.13;10.18;;;;;;;;;;4901960;29;20056;-90
2023/01/08 04:51:34;;;;;;;26.10;9.93;;;;;;;;;;4901520;29;20060;-90
2023/01/08 04:53:59;;;;;;;20.08;9.68;;;;;;;;;;4909556;29;20530;-88
2023/01/08 04:56:25;;;;;;;23.70;10.65;;;;;;;;;;4897449;29;20036;-87
2023/01/08 04:58:51;;;;;;;23.13;10.13;;;;;;;;;;4902792;29;20095;-87
2023/01/08 05:01:20;;;;;;;25.80;9.60;;;;;;;;;;4900833;29;20073;-89
2023/01/08 05:03:45;;;;;;;23.17;9.50;;;;;;;;;;4883517;29;20063;-88
2023/01/08 05:06:11;;;;;;;23.90;10.60;;;;;;;;;;4888558;29;20115;-88
2023/01/08 05:08:36;;;;;;;27.50;10.05;;;;;;;;;;4890783;29;20029;-89
2023/01/08 05:11:02;;;;;;;19.83;8.38;;;;;;;;;;4901396;29;20048;-90
2023/01/08 05:13:27;;;;;;;28.98;12.32;;;;;;;;;;4900425;29;20040;-89
2023/01/08 05:15:53;;;;;;;28.60;10.98;;;;;;;;;;4901408;29;20107;-90
2023/01/08 05:18:18;;;;;;;29.35;11.57;;;;;;;;;;4899693;29;20036;-89
2023/01/08 05:20:44;;;;;;;30.52;11.65;;;;;;;;;;4900122;29;20052;-88
2023/01/08 05:23:09;;;;;;;23.92;11.18;;;;;;;;;;4900145;29;20472;-88
2023/01/08 05:25:35;;;;;;;29.90;12.05;;;;;;;;;;4900209;29;20091;-90
2023/01/08 05:28:00;;;;;;;34.10;11.93;;;;;;;;;;4880056;29;20124;-90
2023/01/08 05:30:25;;;;;;;28.10;10.73;;;;;;;;;;4899929;29;20495;-90
2023/01/08 05:32:51;;;;;;;27.30;11.57;;;;;;;;;;4931600;29;20052;-89
2023/01/08 05:35:16;;;;;;;28.98;11.50;;;;;;;;;;4900365;29;20033;-90
2023/01/08 05:37:42;;;;;;;30.40;11.48;;;;;;;;;;4901851;29;20100;-90
2023/01/08 05:40:08;;;;;;;31.05;11.85;;;;;;;;;;4904924;29;20028;-89
2023/01/08 05:42:34;;;;;;;23.40;10.90;;;;;;;;;;4899794;29;20040;-89
2023/01/08 05:44:59;;;;;;;29.60;11.80;;;;;;;;;;4900783;29;20096;-89
2023/01/08 05:47:28;;;;;;;35.47;12.88;;;;;;;;;;4896173;29;20116;-88
2023/01/08 05:49:53;;;;;;;28.42;12.05;;;;;;;;;;4900478;29;20066;-89
2023/01/08 05:55:03;;;;;;;27.13;10.75;;;;;;;;;;4888241;29;20037;-89
2023/01/08 05:57:28;;;;;;;29.92;12.30;;;;;;;;;;4885341;29;20024;-90
2023/01/08 05:59:54;;;;;;;26.48;11.68;;;;;;;;;;4900086;29;20040;-89
2023/01/08 06:02:20;;;;;;;28.42;11.45;;;;;;;;;;4901608;29;20033;-90
2023/01/08 06:07:30;;;;;;;29.10;12.43;;;;;;;;;;4901834;29;20040;-89
2023/01/08 06:09:55;;;;;;;27.05;10.77;;;;;;;;;;4888130;29;20040;-89
2023/01/08 06:12:21;;;;;;;25.15;11.55;;;;;;;;;;4898597;29;20100;-87
2023/01/08 06:14:46;;;;;;;25.88;11.40;;;;;;;;;;4899105;29;20041;-88
2023/01/08 06:17:13;;;;;;;28.48;12.40;;;;;;;;;;4899127;29;20063;-89
2023/01/08 06:19:39;;;;;;;35.72;13.20;;;;;;;;;;4881953;29;20081;-89
2023/01/08 06:22:04;;;;;;;30.33;13.32;;;;;;;;;;4908604;29;20032;-89
2023/01/08 06:24:30;;;;;;;30.50;12.38;;;;;;;;;;4900207;29;20449;-90
2023/01/08 06:29:40;;;;;;;30.05;12.40;;;;;;;;;;4901578;29;20036;-89
2023/01/08 06:32:05;;;;;;;35.33;13.25;;;;;;;;;;4885699;29;20543;-89
2023/01/08 06:34:31;;;;;;;31.73;13.05;;;;;;;;;;4924891;29;20116;-88
2023/01/08 06:36:56;;;;;;;26.75;11.25;;;;;;;;;;4888001;29;20028;-89
2023/01/08 06:39:22;;;;;;;31.73;11.65;;;;;;;;;;4891689;29;20123;-90
2023/01/08 06:41:47;;;;;;;30.73;12.52;;;;;;;;;;4908353;29;20112;-91
2023/01/08 06:44:13;;;;;;;28.80;11.82;;;;;;;;;;4909170;29;20051;-91
2023/01/08 06:46:39;;;;;;;24.27;11.80;;;;;;;;;;4900270;29;20029;-88
2023/01/08 06:49:05;;;;;;;25.17;10.40;;;;;;;;;;4900558;29;20103;-89
2023/01/08 06:54:14;;;;;;;23.17;11.25;;;;;;;;;;4915628;29;20436;-89
2023/01/08 06:56:40;;;;;;;25.83;10.90;;;;;;;;;;4914225;29;20023;-88
2023/01/08 06:59:05;;;;;;;25.17;10.80;;;;;;;;;;4899299;29;20043;-87
2023/01/08 07:04:16;;;;;;;24.77;10.65;;;;;;;;;;4898084;29;20033;-88
2023/01/08 07:06:41;;;;;;;24.48;10.52;;;;;;;;;;4902475;29;20032;-88
2023/01/08 07:09:08;;;;;;;32.63;12.02;;;;;;;;;;4902063;29;20049;-86
2023/01/08 07:11:33;;;;;;;24.73;11.15;;;;;;;;;;4898266;29;20036;-90
2023/01/08 07:13:59;;;;;;;27.17;11.38;;;;;;;;;;4900038;29;20033;-88
2023/01/08 07:16:24;;;;;;;22.77;11.38;;;;;;;;;;4901635;29;20048;-86
2023/01/08 07:18:50;;;;;;;23.77;11.13;;;;;;;;;;4904571;29;20837;-89
2023/01/08 07:21:15;;;;;;;30.67;11.98;;;;;;;;;;4902826;29;20197;-88
2023/01/08 07:23:41;;;;;;;23.83;11.05;;;;;;;;;;4891806;29;20032;-88
2023/01/08 07:26:07;;;;;;;33.55;12.68;;;;;;;;;;4903898;29;20504;-89
2023/01/08 07:28:32;;;;;;;24.13;10.40;;;;;;;;;;4911680;29;20024;-89
2023/01/08 07:31:01;;;;;;;21.48;10.10;;;;;;;;;;4903562;29;20258;-89
2023/01/08 07:33:26;;;;;;;27.85;10.43;;;;;;;;;;4906258;29;20480;-89
2023/01/08 07:38:36;;;;;;;21.10;9.73;;;;;;;;;;4906003;29;20040;-92
2023/01/08 07:43:46;;;;;;;18.48;8.73;;;;;;;;;;4901932;29;20065;-88
2023/01/08 07:46:11;;;;;;;23.17;9.63;;;;;;;;;;4940587;29;20021;-91
2023/01/08 07:48:37;;;;;;;20.08;9.05;;;;;;;;;;4911746;29;20024;-91
2023/01/08 07:53:47;;;;;;;18.75;8.80;;;;;;;;;;4901924;29;20036;-89
2023/01/08 07:56:13;;;;;;;22.00;8.80;;;;;;;;;;4886278;29;20476;-89
2023/01/08 07:58:38;;;;;;;24.10;9.18;;;;;;;;;;4901400;29;20024;-90
2023/01/08 08:03:50;;;;;;;19.63;8.90;;;;;;;;;;4901048;29;20033;-88
2023/01/08 08:06:16;;;;;;;25.50;10.25;;;;;;;;;;4901150;29;20028;-88
2023/01/08 08:08:41;;;;;;;19.25;8.93;;;;;;;;;;4916647;29;20033;-88
2023/01/08 08:11:07;;;;;;;26.08;11.13;;;;;;;;;;4902786;29;20444;-88
2023/01/08 08:13:32;;;;;;;32.50;10.85;;;;;;;;;;4901815;29;20036;-88
2023/01/08 08:16:01;;;;;;;23.88;9.45;;;;;;;;;;4900766;29;20477;-87
2023/01/08 08:21:11;;;;;;;21.70;9.05;;;;;;;;;;4904547;29;20056;-89
2023/01/08 08:23:36;;;;;;;33.60;10.07;;;;;;;;;;4883228;29;20483;-88
2023/01/08 08:26:03;;;;;;;24.55;9.07;;;;;;;;;;4905305;29;20059;-89
2023/01/08 08:28:28;;;;;;;24.35;10.27;;;;;;;;;;4891011;29;20492;-89
2023/01/08 08:30:54;;;;;;;26.67;11.35;;;;;;;;;;4887718;29;20037;-89
2023/01/08 08:33:19;;;;;;;24.50;10.75;;;;;;;;;;4884736;29;20033;-92
2023/01/08 08:35:49;;;;;;;41.17;17.85;;;;;;;;;;4893424;29;20044;-89
2023/01/08 08:38:15;;;;;;;19.00;8.93;;;;;;;;;;4932483;29;20036;-86
2023/01/08 08:40:41;;;;;;;22.02;9.90;;;;;;;;;;4873147;29;20407;-88
2023/01/08 08:43:08;;;;;;;19.13;8.68;;;;;;;;;;4902609;29;20031;-87
2023/01/08 08:51:02;;;;;;;16.20;7.90;;;;;;;;;;4920229;29;20040;-87
2023/01/08 08:53:28;;;;;;;16.42;8.30;;;;;;;;;;4883586;29;20028;-86
2023/01/08 08:55:53;;;;;;;20.02;8.98;;;;;;;;;;4885786;29;20552;-87
2023/01/08 08:58:19;;;;;;;24.60;9.38;;;;;;;;;;4885083;29;20056;-88
2023/01/08 09:00:44;;;;;;;19.05;8.38;;;;;;;;;;4885954;29;20044;-89
2023/01/08 09:03:13;;;;;;;17.77;8.25;;;;;;;;;;4886279;29;20107;-88
2023/01/08 09:05:39;;;;;;;18.70;8.80;;;;;;;;;;4870364;29;20399;-89
2023/01/08 09:08:04;;;;;;;16.77;8.50;;;;;;;;;;4899646;29;20033;-86
2023/01/08 09:10:30;;;;;;;23.67;8.18;;;;;;;;;;4872178;29;20092;-89
2023/01/08 09:12:56;;;;;;;21.10;8.95;;;;;;;;;;4888518;29;20075;-89
2023/01/08 09:15:21;;;;;;;17.92;8.38;;;;;;;;;;4888011;29;20488;-90
2023/01/08 09:20:40;;;;;;;17.02;9.20;;;;;;;;;;4898791;29;20067;-90
2023/01/08 09:23:06;;;;;;;17.77;8.23;;;;;;;;;;4885086;29;20033;-85
2023/01/08 09:25:31;;;;;;;15.75;7.63;;;;;;;;;;4901259;29;20039;-89
2023/01/08 09:30:50;;;;;;;17.67;8.02;;;;;;;;;;4899991;29;20044;-87
2023/01/08 09:33:16;;;;;;;19.08;8.73;;;;;;;;;;4884750;29;20036;-85
2023/01/08 09:35:42;;;;;;;18.27;8.70;;;;;;;;;;4899984;29;20044;-85
2023/01/08 09:38:07;;;;;;;17.52;7.43;;;;;;;;;;4898318;29;20088;-87
2023/01/08 09:40:51;;;;;;;19.35;7.93;;;;;;;;;;4881873;29;20103;-85
2023/01/08 09:43:18;;;;;;;17.25;8.15;;;;;;;;;;4897897;29;20033;-86
2023/01/08 09:45:43;;;;;;;15.93;7.72;;;;;;;;;;4897177;29;20076;-83
2023/01/08 09:48:12;;;;;;;21.25;8.45;;;;;;;;;;4899369;29;20045;-85
2023/01/08 09:50:38;;;;;;;14.75;6.80;;;;;;;;;;4898844;29;20032;-85
2023/01/08 09:53:03;;;;;;;14.93;6.68;;;;;;;;;;4928891;29;20051;-86
2023/01/08 09:55:30;;;;;;;15.80;7.55;;;;;;;;;;4896235;29;20365;-84
2023/01/08 09:57:55;;;;;;;16.70;6.78;;;;;;;;;;4864491;29;20632;-85
2023/01/08 10:03:08;;;;;;;18.45;7.93;;;;;;;;;;4899345;29;20028;-85
2023/01/08 10:05:34;;;;;;;16.08;6.63;;;;;;;;;;4881217;29;20115;-85
2023/01/08 10:07:59;;;;;;;16.85;7.18;;;;;;;;;;4896096;29;20087;-85
2023/01/08 10:10:26;;;;;;;17.00;7.40;;;;;;;;;;4896792;29;20043;-86
2023/01/08 10:12:51;;;;;;;20.08;7.90;;;;;;;;;;4901059;29;20500;-85
2023/01/08 10:15:17;;;;;;;17.77;8.40;;;;;;;;;;4896671;29;20035;-86
2023/01/08 10:17:48;;;;;;;20.35;8.00;;;;;;;;;;4877534;29;20093;-86
2023/01/08 10:20:14;;;;;;;16.33;8.30;;;;;;;;;;4896282;29;20053;-87
2023/01/08 10:22:40;;;;;;;14.25;6.50;;;;;;;;;;4866134;29;20041;-86
2023/01/08 10:25:08;;;;;;;15.85;7.50;;;;;;;;;;4897843;29;20105;-87
2023/01/08 10:27:54;;;;;;;15.45;7.72;;;;;;;;;;4880903;29;20084;-83
2023/01/08 10:30:28;;;;;;;16.92;7.82;;;;;;;;;;4891547;29;20060;-84
2023/01/08 10:35:39;;;;;;;14.70;7.20;;;;;;;;;;4896915;29;20392;-85
2023/01/08 10:38:04;;;;;;;14.75;7.50;;;;;;;;;;4896491;29;20036;-83
2023/01/08 10:40:30;;;;;;;;;;;;;;;;;;4898244;29;20461;-85
2023/01/08 10:42:56;;;;;;;14.23;7.10;;;;;;;;;;4902207;29;20414;-85
2023/01/08 10:45:21;;;;;;;;;;;;;;;;;;4887106;29;20116;-84
2023/01/08 10:47:47;;;;;;;18.95;7.90;;;;;;;;;;4893256;29;19955;-85
2023/01/08 10:50:18;;;;;;;17.15;8.48;;;;;;;;;;4900082;29;20070;-85
2023/01/08 10:52:53;;;;;;;15.90;7.95;;;;;;;;;;4899055;29;20036;-88
2023/01/08 10:55:30;;;;;;;19.65;9.15;;;;;;;;;;4899747;29;20087;-84
2023/01/08 10:58:03;;;;;;;15.80;8.38;;;;;;;;;;4900824;29;20032;-88
2023/01/08 11:00:29;;;;;;;20.42;9.00;;;;;;;;;;4882875;29;20041;-86
2023/01/08 11:02:55;;;;;;;17.63;8.85;;;;;;;;;;4898072;29;20031;-84
2023/01/08 11:05:27;;;;;;;15.77;9.02;;;;;;;;;;4898415;29;20049;-85
2023/01/08 11:07:54;;;;;;;17.02;9.35;;;;;;;;;;4897831;29;20056;-84
2023/01/08 11:10:23;;;;;;;17.70;9.20;;;;;;;;;;4879044;29;20028;-85
2023/01/08 11:12:55;;;;;;;20.98;9.40;;;;;;;;;;4890334;29;20053;-84
2023/01/08 11:18:25;;;;;;;17.17;8.30;;;;;;;;;;4900257;29;20051;-85
2023/01/08 11:20:52;;;;;;;18.45;8.32;;;;;;;;;;4900251;29;20108;-84
2023/01/08 11:23:18;;;;;;;17.00;9.00;;;;;;;;;;4883177;29;20654;-86
2023/01/08 11:25:55;;;;;;;18.17;8.95;;;;;;;;;;4899391;29;20408;-85
2023/01/08 11:28:29;;;;;;;16.15;8.50;;;;;;;;;;4891769;29;20127;-86
2023/01/08 11:30:58;;;;;;;14.02;8.05;;;;;;;;;;4915845;29;20037;-85
2023/01/08 11:33:25;;;;;;;17.10;8.82;;;;;;;;;;4882698;29;20403;-85
2023/01/08 11:35:55;;;;;;;19.23;9.55;;;;;;;;;;4930107;29;20044;-83
2023/01/08 11:38:21;;;;;;;17.05;8.90;;;;;;;;;;4893509;29;20052;-84
2023/01/08 11:40:54;;;;;;;16.27;8.73;;;;;;;;;;4900325;29;20120;-84
2023/01/08 11:43:32;;;;;;;17.80;9.35;;;;;;;;;;4898360;29;20077;-83
2023/01/08 11:46:16;;;;;;;19.20;8.85;;;;;;;;;;4903178;29;20037;-83
2023/01/08 11:48:42;;;;;;;19.23;9.27;;;;;;;;;;4898765;29;20476;-85
2023/01/08 11:54:03;;;;;;;17.55;8.70;;;;;;;;;;4888265;29;19975;-85
2023/01/08 11:56:38;;;;;;;18.08;8.30;;;;;;;;;;4898070;29;20032;-84
2023/01/08 11:59:04;;;;;;;17.95;8.13;;;;;;;;;;4883318;29;20515;-86
2023/01/08 12:01:29;;;;;;;;;;;;;;;;;;4898863;29;20032;-84
2023/01/08 12:04:24;;;;;;;17.42;8.40;;;;;;;;;;4899542;29;19924;-88
2023/01/08 12:07:11;;;;;;;18.38;8.10;;;;;;;;;;4844006;29;20109;-85
2023/01/08 12:09:39;;;;;;;11.77;6.68;;;;;;;;;;4898037;29;20449;-83
2023/01/08 12:12:07;;;;;;;15.90;7.22;;;;;;;;;;4898900;29;20032;-85
2023/01/08 12:14:40;;;;;;;16.40;7.45;;;;;;;;;;4929031;29;20057;-86
2023/01/08 12:17:15;;;;;;;18.02;7.85;;;;;;;;;;4899622;29;20049;-86
2023/01/08 12:19:53;;;;;;;16.30;7.13;;;;;;;;;;4899167;29;20065;-86
2023/01/08 12:22:26;;;;;;;19.23;7.97;;;;;;;;;;4900002;29;20104;-85
2023/01/08 12:25:26;;;;;;;17.65;7.25;;;;;;;;;;4898991;29;20101;-84
2023/01/08 12:27:54;;;;;;;15.40;7.07;;;;;;;;;;4913346;29;20036;-84
2023/01/08 12:30:23;;;;;;;13.45;7.05;;;;;;;;;;4898890;29;20135;-83
2023/01/08 12:32:49;;;;;;;15.35;6.85;;;;;;;;;;4898781;29;20055;-84
2023/01/08 12:35:17;;;;;;;13.48;6.90;;;;;;;;;;4897658;29;20033;-86
2023/01/08 12:37:43;;;;;;;16.05;7.45;;;;;;;;;;4905205;29;20539;-85
2023/01/08 12:40:08;;;;;;;;;;;;;;;;;;4898289;29;20037;-85
2023/01/08 12:42:37;;;;;;;13.55;6.80;;;;;;;;;;4898372;29;20026;-85
2023/01/08 12:45:05;;;;;;;15.10;7.38;;;;;;;;;;4898702;29;20028;-86
2023/01/08 12:47:34;;;;;;;15.13;6.63;;;;;;;;;;4879105;29;20041;-82
2023/01/08 12:49:59;;;;;;;;;;;;;;;;;;4890268;29;20084;-84
2023/01/08 12:52:35;;;;;;;13.43;6.15;;;;;;;;;;4896662;29;19915;-86
2023/01/08 12:58:19;;;;;;;16.52;7.63;;;;;;;;;;4893045;29;20040;-86
2023/01/08 13:00:51;;;;;;;13.70;6.80;;;;;;;;;;4890543;29;20033;-86
2023/01/08 13:03:18;;;;;;;15.90;7.53;;;;;;;;;;4911182;29;20036;-88
2023/01/08 13:05:43;;;;;;;14.60;7.05;;;;;;;;;;4910664;29;20028;-91
2023/01/08 13:08:09;;;;;;;;;;;;;;;;;;4907367;29;20515;-85
2023/01/08 13:10:35;;;;;;;17.15;7.90;;;;;;;;;;4905426;29;19910;-89
2023/01/08 13:13:02;;;;;;;16.02;8.13;;;;;;;;;;4899135;29;20055;-89
2023/01/08 13:15:30;;;;;;;22.10;10.80;;;;;;;;;;4898704;29;20043;-87
2023/01/08 13:17:56;;;;;;;23.80;10.25;;;;;;;;;;4881634;29;20059;-85
2023/01/08 13:20:28;;;;;;;25.10;11.27;;;;;;;;;;4899252;29;20048;-85
2023/01/08 13:22:55;;;;;;;19.95;10.73;;;;;;;;;;4897986;29;20032;-87
2023/01/08 13:25:21;;;;;;;20.95;9.82;;;;;;;;;;4899237;29;20041;-86
2023/01/08 13:27:46;;;;;;;15.18;7.82;;;;;;;;;;4897807;29;20047;-89
2023/01/08 13:30:11;;;;;;;;;;;;;;;;;;4908298;29;20100;-85
2023/01/08 13:32:45;;;;;;;15.05;7.55;;;;;;;;;;4896329;29;19915;-84
2023/01/08 13:35:14;;;;;;;20.60;9.43;;;;;;;;;;4896480;29;20068;-85
2023/01/08 13:37:43;;;;;;;18.83;9.48;;;;;;;;;;4897771;29;20039;-85
2023/01/08 13:40:28;;;;;;;19.33;9.00;;;;;;;;;;4896306;29;20036;-83
2023/01/08 13:42:53;;;;;;;21.83;9.18;;;;;;;;;;4911095;29;20040;-85
2023/01/08 13:45:19;;;;;;;21.67;8.43;;;;;;;;;;4880353;29;20104;-85
2023/01/08 13:47:45;;;;;;;;;;;;;;;;;;4877043;29;20461;-83
2023/01/08 13:50:15;;;;;;;21.05;8.77;;;;;;;;;;4896397;29;20386;-84
2023/01/08 13:52:44;;;;;;;16.23;8.27;;;;;;;;;;4894444;29;20634;-85
2023/01/08 13:55:13;;;;;;;16.40;8.18;;;;;;;;;;4897987;29;20025;-82
2023/01/08 13:57:50;;;;;;;18.17;7.60;;;;;;;;;;4896354;29;20096;-84
2023/01/08 14:00:38;;;;;;;18.10;8.23;;;;;;;;;;4896555;29;20040;-88
2023/01/08 14:03:04;;;;;;;19.50;8.05;;;;;;;;;;4889661;29;20048;-83
2023/01/08 14:05:30;;;;;;;19.27;8.45;;;;;;;;;;4896026;29;20385;-83
2023/01/08 14:07:57;;;;;;;19.27;8.57;;;;;;;;;;4897350;29;20530;-83
2023/01/08 14:10:23;;;;;;;16.35;8.02;;;;;;;;;;4897614;29;20556;-82
2023/01/08 14:15:33;;;;;;;20.88;8.63;;;;;;;;;;4911428;29;20491;-82
2023/01/08 14:17:58;;;;;;;17.08;8.80;;;;;;;;;;4884462;29;20033;-84
2023/01/08 14:20:34;;;;;;;16.10;7.72;;;;;;;;;;4899176;29;20048;-83
2023/01/08 14:23:00;;;;;;;15.52;7.70;;;;;;;;;;4899155;29;20519;-84
2023/01/08 14:25:26;;;;;;;15.68;7.80;;;;;;;;;;4883738;29;20548;-85
2023/01/08 14:27:59;;;;;;;20.33;7.43;;;;;;;;;;4900274;29;20125;-87
2023/01/08 14:35:54;;;;;;;22.58;8.43;;;;;;;;;;4899827;29;20553;-85
2023/01/08 14:38:19;;;;;;;21.38;9.80;;;;;;;;;;4903019;29;20115;-84
2023/01/08 14:40:46;;;;;;;27.73;10.32;;;;;;;;;;4900458;29;20041;-84
2023/01/08 14:43:13;;;;;;;16.98;8.05;;;;;;;;;;4900300;29;20079;-84
2023/01/08 14:45:38;;;;;;;19.27;8.23;;;;;;;;;;4882633;29;20028;-85
2023/01/08 14:48:08;;;;;;;21.55;9.23;;;;;;;;;;4899223;29;20036;-85
2023/01/08 14:50:38;;;;;;;21.58;9.82;;;;;;;;;;4908154;29;20128;-85
2023/01/08 14:53:04;;;;;;;19.52;9.57;;;;;;;;;;4900554;29;20058;-84
2023/01/08 14:58:23;;;;;;;24.52;9.43;;;;;;;;;;4899020;29;20041;-85
2023/01/08 15:03:39;;;;;;;18.20;8.68;;;;;;;;;;4913254;29;20029;-85
2023/01/08 15:06:04;;;;;;;23.98;9.68;;;;;;;;;;4899624;29;20189;-85
2023/01/08 15:08:34;;;;;;;20.10;9.10;;;;;;;;;;4881876;29;20085;-84
2023/01/08 15:11:03;;;;;;;16.45;8.38;;;;;;;;;;4900929;29;20488;-85
2023/01/08 15:13:30;;;;;;;18.02;8.45;;;;;;;;;;4897169;29;20037;-85
2023/01/08 15:16:00;;;;;;;18.30;8.32;;;;;;;;;;4898908;29;20404;-84
2023/01/08 15:18:25;;;;;;;17.73;8.35;;;;;;;;;;4926250;29;20120;-86
2023/01/08 15:20:51;;;;;;;17.23;7.70;;;;;;;;;;4900904;29;20514;-86
2023/01/08 15:23:27;;;;;;;21.48;8.32;;;;;;;;;;4902388;29;20411;-85
2023/01/08 15:25:53;;;;;;;19.55;7.80;;;;;;;;;;4898206;29;20032;-86
2023/01/08 15:28:20;;;;;;;16.77;7.47;;;;;;;;;;4899816;29;20051;-85
2023/01/08 15:30:46;;;;;;;15.93;8.40;;;;;;;;;;4899707;29;20139;-85
2023/01/08 15:33:18;;;;;;;17.85;8.60;;;;;;;;;;4900750;29;20059;-85
2023/01/08 15:35:44;;;;;;;16.40;7.70;;;;;;;;;;4905938;29;20028;-85
2023/01/08 15:38:10;;;;;;;14.20;6.72;;;;;;;;;;4896395;29;20033;-83
2023/01/08 15:40:36;;;;;;;17.48;8.23;;;;;;;;;;4900723;29;20484;-85
2023/01/08 15:43:10;;;;;;;15.75;7.55;;;;;;;;;;4897517;29;20408;-84
2023/01/08 15:45:37;;;;;;;15.30;7.32;;;;;;;;;;4901175;29;20091;-86
2023/01/08 15:48:03;;;;;;;17.67;6.70;;;;;;;;;;4899293;29;20025;-84
2023/01/08 15:50:31;;;;;;;15.73;7.95;;;;;;;;;;4912550;29;20041;-85
2023/01/08 15:52:57;;;;;;;13.25;6.80;;;;;;;;;;4896164;29;20381;-85
2023/01/08 15:55:22;;;;;;;15.68;7.30;;;;;;;;;;4899574;29;20036;-85
2023/01/08 15:57:48;;;;;;;13.18;6.80;;;;;;;;;;4898744;29;20057;-85
2023/01/08 16:00:14;;;;;;;16.55;7.32;;;;;;;;;;4882851;29;20092;-84
2023/01/08 16:02:46;;;;;;;16.08;7.70;;;;;;;;;;4899933;29;20408;-84
2023/01/08 16:05:12;;;;;;;16.58;7.05;;;;;;;;;;4899773;29;20103;-84
2023/01/08 16:07:37;;;;;;;17.50;7.25;;;;;;;;;;4882530;29;20103;-86
2023/01/08 16:10:03;;;;;;;16.75;7.32;;;;;;;;;;4896254;29;20051;-85
2023/01/08 16:12:29;;;;;;;13.45;6.63;;;;;;;;;;4908004;29;20028;-84